createdAt,value
2022-08-10T00:01:36.063Z,99813.09
2022-08-10T00:04:42.271Z,99815.95
2022-08-10T00:07:46.743Z,99813.84
2022-08-10T00:10:53.098Z,99819.48
2022-08-10T00:13:59.212Z,99814.23
2022-08-10T00:17:07.237Z,99811.15
2022-08-10T00:20:15.190Z,99807.77
2022-08-10T00:23:21.737Z,99807.27
2022-08-10T00:27:52.171Z,99809.39
2022-08-10T00:29:54.575Z,99809.77
2022-08-10T00:33:00.722Z,99813.48
2022-08-10T00:36:05.477Z,99812.90
2022-08-10T00:39:15.884Z,99806.07
2022-08-10T00:42:22.912Z,99807.98
2022-08-10T00:45:27.288Z,99808.60
2022-08-10T00:48:33.998Z,99812.09
2022-08-10T00:51:48.161Z,99817.94
2022-08-10T00:54:56.271Z,99820.05
2022-08-10T00:58:02.632Z,99814.98
2022-08-10T01:02:08.244Z,99814.42
2022-08-10T01:05:00.171Z,99813.06
2022-08-10T01:08:22.075Z,99810.98
2022-08-10T01:12:38.384Z,99812.06
2022-08-10T01:15:09.833Z,99811.56
2022-08-10T01:18:23.014Z,99814.89
2022-08-10T01:22:10.727Z,99817.10
2022-08-10T01:26:11.050Z,99815.11
2022-08-10T01:29:31.461Z,99814.61
2022-08-10T01:32:48.982Z,99813.93
2022-08-10T01:35:58.928Z,99816.22
2022-08-10T01:39:07.733Z,99814.23
2022-08-10T01:42:18.350Z,99812.79
2022-08-10T01:45:27.907Z,99811.09
2022-08-10T01:48:37.288Z,99811.52
2022-08-10T01:51:47.155Z,99812.76
2022-08-10T01:54:56.197Z,99806.73
2022-08-10T01:58:05.147Z,99809.14
2022-08-10T02:01:16.996Z,99807.08
2022-08-10T02:04:27.114Z,99806.33
2022-08-10T02:07:37.781Z,99804.60
2022-08-10T02:10:46.603Z,99802.46
2022-08-10T02:13:54.276Z,99807.34
2022-08-10T02:17:02.614Z,99809.94
2022-08-10T02:20:12.612Z,99810.41
2022-08-10T02:23:23.903Z,99808.58
2022-08-10T02:26:31.068Z,99809.77
2022-08-10T02:29:42.241Z,99812.09
2022-08-10T02:32:52.738Z,99814.67
2022-08-10T02:36:01.494Z,99819.52
2022-08-10T02:39:09.179Z,99825.89
2022-08-10T02:45:15.811Z,99827.03
2022-08-10T02:45:51.581Z,99827.36
2022-08-10T02:49:03.407Z,99824.79
2022-08-10T02:52:15.667Z,99827.60
2022-08-10T02:55:32.430Z,99830.94
2022-08-10T02:58:44.230Z,99827.61
2022-08-10T03:01:54.396Z,99830.63
2022-08-10T03:05:08.338Z,99830.11
2022-08-10T03:08:16.894Z,99831.83
2022-08-10T03:12:35.426Z,99835.61
2022-08-10T03:14:54.625Z,99842.65
2022-08-10T03:18:02.251Z,99845.73
2022-08-10T03:21:12.032Z,99846.63
2022-08-10T03:24:32.691Z,99848.41
2022-08-10T03:27:40.453Z,99854.48
2022-08-10T03:30:47.003Z,99860.04
2022-08-10T03:33:54.248Z,99859.22
2022-08-10T03:37:00.473Z,99865.75
2022-08-10T03:40:05.435Z,99870.78
2022-08-10T03:43:13.439Z,99870.93
2022-08-10T04:08:21.554Z,99879.58
2022-08-10T04:11:27.710Z,99880.53
2022-08-10T04:14:38.059Z,99879.10
2022-08-10T04:18:05.705Z,99882.98
2022-08-10T04:21:17.164Z,99888.08
2022-08-10T04:24:30.811Z,99884.19
2022-08-10T04:27:37.797Z,99886.28
2022-08-10T04:30:45.939Z,99884.75
2022-08-10T04:33:54.421Z,99887.88
2022-08-10T04:49:02.215Z,99895.29
2022-08-10T04:52:10.392Z,99897.91
2022-08-10T04:55:15.807Z,99895.44
2022-08-10T04:58:21.300Z,99898.86
2022-08-10T05:01:26.975Z,99900.48
2022-08-10T05:04:43.401Z,99898.54
2022-08-10T05:07:54.291Z,99898.42
2022-08-10T05:11:02.497Z,99897.89
2022-08-10T05:14:07.926Z,99899.94
2022-08-10T05:17:13.444Z,99893.98
2022-08-10T05:20:20.645Z,99893.44
2022-08-10T05:23:28.250Z,99893.55
2022-08-10T05:26:35.250Z,99892.10
2022-08-10T05:29:42.318Z,99890.86
2022-08-10T05:32:56.390Z,99890.70
2022-08-10T05:36:07.376Z,99884.17
2022-08-10T05:39:13.913Z,99885.59
2022-08-10T05:42:21.734Z,99881.48
2022-08-10T05:45:29.100Z,99881.23
2022-08-10T05:48:54.050Z,99886.27
2022-08-10T05:52:00.253Z,99893.33
2022-08-10T05:55:07.347Z,99899.67
2022-08-10T05:58:12.993Z,99898.65
2022-08-10T06:01:20.157Z,99901.13
2022-08-10T06:04:30.992Z,99902.09
2022-08-10T06:07:38.653Z,99906.80
2022-08-10T06:12:16.467Z,99901.26
2022-08-10T06:14:31.941Z,99905.27
2022-08-10T06:17:38.470Z,99907.20
2022-08-10T06:20:44.709Z,99904.85
2022-08-10T06:23:51.463Z,99902.15
2022-08-10T06:26:57.115Z,99906.02
2022-08-10T06:30:03.813Z,99909.98
2022-08-10T06:33:28.051Z,99907.33
2022-08-10T06:36:35.244Z,99902.52
2022-08-10T06:39:41.158Z,99903.63
2022-08-10T06:42:50.362Z,99904.23
2022-08-10T06:46:08.363Z,99900.64
2022-08-10T06:49:16.009Z,99899.03
2022-08-10T06:52:23.672Z,99894.95
2022-08-10T06:55:49.848Z,99894.96
2022-08-10T06:59:01.898Z,99895.10
2022-08-10T07:02:10.658Z,99895.22
2022-08-10T07:05:21.528Z,99895.91
2022-08-10T07:08:32.672Z,99890.52
2022-08-10T07:11:39.037Z,99891.45
2022-08-10T07:14:47.111Z,99892.84
2022-08-10T07:17:54.773Z,99893.15
2022-08-10T07:21:02.097Z,99894.16
2022-08-10T07:24:10.296Z,99891.58
2022-08-10T07:27:18.285Z,99890.55
2022-08-10T07:30:24.929Z,99890.30
2022-08-10T07:33:32.636Z,99890.31
2022-08-10T07:36:40.321Z,99888.33
2022-08-10T07:40:02.669Z,99890.98
2022-08-10T07:43:10.885Z,99887.23
2022-08-10T07:46:18.724Z,99889.86
2022-08-10T07:49:27.788Z,99888.09
2022-08-10T07:52:37.807Z,99887.39
2022-08-10T07:56:04.371Z,99884.65
2022-08-10T07:59:17.157Z,99885.69
2022-08-10T08:02:30.466Z,99886.41
2022-08-10T08:05:58.689Z,99884.67
2022-08-10T08:09:09.351Z,99883.73
2022-08-10T08:12:16.591Z,99880.83
2022-08-10T08:16:19.570Z,99879.91
2022-08-10T08:18:58.116Z,99882.96
2022-08-10T08:24:07.522Z,99879.84
2022-08-10T08:25:45.204Z,99880.31
2022-08-10T08:28:52.325Z,99882.49
2022-08-10T08:32:02.068Z,99881.95
2022-08-10T08:35:11.841Z,99875.55
2022-08-10T08:38:30.167Z,99874.67
2022-08-10T08:42:04.753Z,99870.34
2022-08-10T08:45:24.205Z,99869.94
2022-08-10T08:48:53.429Z,99864.27
2022-08-10T08:52:18.243Z,99863.05
2022-08-10T08:56:04.580Z,99858.73
2022-08-10T08:59:17.995Z,99856.25
2022-08-10T09:02:43.943Z,99857.66
2022-08-10T09:06:15.694Z,99858.27
2022-08-10T09:09:38.510Z,99857.21
2022-08-10T09:12:54.912Z,99859.66
2022-08-10T09:16:09.999Z,99855.05
2022-08-10T09:19:35.384Z,99852.95
2022-08-10T09:22:50.507Z,99855.73
2022-08-10T09:26:05.365Z,99852.91
2022-08-10T09:29:14.627Z,99849.75
2022-08-10T09:35:39.276Z,99847.35
2022-08-10T09:36:23.161Z,99842.90
2022-08-10T09:40:56.560Z,99845.70
2022-08-10T09:43:26.082Z,99844.60
2022-08-10T09:46:46.087Z,99843.20
2022-08-10T09:50:08.024Z,99837.04
2022-08-10T09:53:31.712Z,99834.73
2022-08-10T09:56:48.802Z,99828.08
2022-08-10T10:00:08.029Z,99823.89
2022-08-10T10:03:25.820Z,99817.10
2022-08-10T10:06:39.380Z,99816.85
2022-08-10T10:09:53.664Z,99821.48
2022-08-10T10:13:05.517Z,99812.52
2022-08-10T10:16:39.500Z,99806.33
2022-08-10T10:20:02.300Z,99802.39
2022-08-10T10:23:19.629Z,99805.98
2022-08-10T10:26:33.693Z,99802.08
2022-08-10T10:29:57.242Z,99803.58
2022-08-10T10:33:14.714Z,99807.02
2022-08-10T10:36:21.937Z,99803.20
2022-08-10T10:39:29.484Z,99800.64
2022-08-10T10:42:50.996Z,99797.23
2022-08-10T10:46:05.105Z,99788.86
2022-08-10T10:49:22.870Z,99788.42
2022-08-10T10:52:44.084Z,99783.84
2022-08-10T10:56:15.198Z,99781.64
2022-08-10T10:59:53.947Z,99783.20
2022-08-10T11:03:14.428Z,99783.95
2022-08-10T11:06:40.480Z,99785.50
2022-08-10T11:10:09.306Z,99779.45
2022-08-10T11:14:25.674Z,99776.91
2022-08-10T11:17:06.541Z,99773.80
2022-08-10T11:20:17.789Z,99769.48
2022-08-10T11:23:32.662Z,99768.70
2022-08-10T11:26:47.546Z,99768.55
2022-08-10T11:30:02.129Z,99765.38
2022-08-10T11:33:15.540Z,99757.33
2022-08-10T11:36:48.135Z,99760.41
2022-08-10T11:40:00.732Z,99761.62
2022-08-10T11:43:14.742Z,99758.87
2022-08-10T11:46:29.123Z,99766.45
2022-08-10T11:49:39.007Z,99768.66
2022-08-10T11:52:52.980Z,99765.64
2022-08-10T11:56:00.452Z,99754.19
2022-08-10T11:59:28.858Z,99746.54
2022-08-10T12:02:45.919Z,99741.70
2022-08-10T12:05:55.212Z,99735.21
2022-08-10T12:10:03.550Z,99738.86
2022-08-10T12:12:29.669Z,99739.58
2022-08-10T12:15:40.181Z,99734.66
2022-08-10T12:18:50.043Z,99733.32
2022-08-10T12:22:05.818Z,99727.70
2022-08-10T12:25:55.033Z,99719.48
2022-08-10T12:28:50.166Z,99718.36
2022-08-10T12:32:05.597Z,99716.31
2022-08-10T12:35:22.755Z,99717.23
2022-08-10T12:38:40.609Z,99711.59
2022-08-10T12:41:54.279Z,99711.40
2022-08-10T12:45:04.763Z,99705.50
2022-08-10T12:48:18.403Z,99702.93
2022-08-10T12:51:30.502Z,99702.62
2022-08-10T12:54:39.282Z,99692.42
2022-08-10T12:57:51.119Z,99695.80
2022-08-10T13:01:15.756Z,99690.83
2022-08-10T13:04:31.923Z,99683.27
2022-08-10T13:08:24.123Z,99675.68
2022-08-10T13:12:14.253Z,99673.14
2022-08-10T13:14:42.963Z,99674.77
2022-08-10T13:17:53.276Z,99671.89
2022-08-10T13:21:19.878Z,99671.98
2022-08-10T13:24:29.355Z,99661.23
2022-08-10T13:28:01.388Z,99657.27
2022-08-10T13:31:11.625Z,99658.94
2022-08-10T13:34:42.531Z,99654.52
2022-08-10T13:37:54.452Z,99657.67
2022-08-10T13:41:00.856Z,99657.05
2022-08-10T13:44:07.916Z,99653.64
2022-08-10T13:47:16.052Z,99653.55
2022-08-10T13:50:33.195Z,99650.58
2022-08-10T13:53:44.133Z,99651.66
2022-08-10T13:56:52.072Z,99643.15
2022-08-10T14:00:35.238Z,99634.31
2022-08-10T14:03:27.029Z,99634.94
2022-08-10T14:06:34.228Z,99631.91
2022-08-10T14:09:41.465Z,99633.56
2022-08-10T14:12:50.260Z,99626.61
2022-08-10T14:15:57.611Z,99620.91
2022-08-10T14:19:15.689Z,99613.54
2022-08-10T14:22:33.628Z,99616.96
2022-08-10T14:25:52.077Z,99618.14
2022-08-10T14:29:04.229Z,99621.13
2022-08-10T14:32:14.321Z,99618.48
2022-08-10T14:36:22.375Z,99619.25
2022-08-10T14:38:48.496Z,99623.77
2022-08-10T14:42:00.868Z,99622.29
2022-08-10T14:45:23.197Z,99624.32
2022-08-10T14:48:34.228Z,99625.13
2022-08-10T14:51:45.357Z,99618.09
2022-08-10T14:54:55.086Z,99614.86
2022-08-10T14:58:20.025Z,99613.77
2022-08-10T15:01:26.993Z,99611.98
2022-08-10T15:04:54.414Z,99611.45
2022-08-10T15:08:03.631Z,99609.53
2022-08-10T15:12:13.311Z,99606.95
2022-08-10T15:14:42.977Z,99606.78
2022-08-10T15:17:57.394Z,99607.83
2022-08-10T15:21:17.522Z,99602.21
2022-08-10T15:24:39.124Z,99602.63
2022-08-10T15:27:54.271Z,99603.15
2022-08-10T15:31:02.001Z,99602.94
2022-08-10T15:34:28.950Z,99599.23
2022-08-10T15:37:39.687Z,99605.13
2022-08-10T15:40:54.767Z,99598.90
2022-08-10T15:44:01.965Z,99600.30
2022-08-10T15:47:09.019Z,99599.92
2022-08-10T15:50:20.887Z,99603.05
2022-08-10T15:53:34.111Z,99600.98
2022-08-10T15:57:01.741Z,99605.27
2022-08-10T16:00:10.626Z,99601.69
2022-08-10T16:03:25.405Z,99599.04
2022-08-10T16:06:36.184Z,99596.52
2022-08-10T16:10:10.646Z,99599.95
2022-08-10T16:13:50.932Z,99600.14
2022-08-10T16:16:46.907Z,99601.92
2022-08-10T16:19:56.194Z,99601.44
2022-08-10T16:23:04.557Z,99600.22
2022-08-10T16:26:15.471Z,99596.38
2022-08-10T16:29:25.887Z,99601.42
2022-08-10T16:32:33.968Z,99601.30
2022-08-10T16:35:40.585Z,99601.68
2022-08-10T16:38:48.865Z,99606.62
2022-08-10T16:42:03.504Z,99607.42
2022-08-10T16:45:16.235Z,99608.97
2022-08-10T16:48:49.056Z,99614.24
2022-08-10T16:51:50.595Z,99615.69
2022-08-10T16:55:02.335Z,99612.80
2022-08-10T16:58:31.024Z,99614.08
2022-08-10T17:01:40.684Z,99610.11
2022-08-10T17:04:47.843Z,99613.33
2022-08-10T17:08:03.295Z,99613.67
2022-08-10T17:11:07.457Z,99614.83
2022-08-10T17:14:25.072Z,99614.59
2022-08-10T17:17:36.504Z,99612.38
2022-08-10T17:20:43.687Z,99611.63
2022-08-10T17:23:54.137Z,99613.33
2022-08-10T17:28:04.767Z,99606.82
2022-08-10T17:30:51.489Z,99609.89
2022-08-10T17:34:11.273Z,99608.04
2022-08-10T17:37:21.178Z,99608.83
2022-08-10T17:40:29.773Z,99605.85
2022-08-10T17:44:00.976Z,99607.05
2022-08-10T17:47:10.753Z,99605.75
2022-08-10T17:50:22.222Z,99603.20
2022-08-10T17:53:39.314Z,99603.77
2022-08-10T17:56:45.301Z,99610.52
2022-08-10T17:59:53.678Z,99614.80
2022-08-10T18:03:01.980Z,99618.69
2022-08-10T18:06:14.598Z,99623.50
2022-08-10T18:09:43.382Z,99626.55
2022-08-10T18:13:03.638Z,99629.34
2022-08-10T18:16:12.895Z,99630.97
2022-08-10T18:19:20.193Z,99635.20
2022-08-10T18:22:26.944Z,99635.95
2022-08-10T18:25:34.410Z,99639.74
2022-08-10T18:28:43.324Z,99635.29
2022-08-10T18:31:55.425Z,99643.83
2022-08-10T18:35:04.517Z,99646.48
2022-08-10T18:38:12.725Z,99646.39
2022-08-10T18:41:21.804Z,99649.50
2022-08-10T18:44:34.924Z,99647.27
2022-08-10T18:47:56.058Z,99656.73
2022-08-10T18:51:07.157Z,99660.22
2022-08-10T18:54:39.921Z,99661.53
2022-08-10T18:57:59.503Z,99657.34
2022-08-10T19:01:19.140Z,99660.48
2022-08-10T19:04:37.145Z,99661.69
2022-08-10T19:08:30.074Z,99663.70
2022-08-10T19:11:55.056Z,99664.61
2022-08-10T19:15:10.326Z,99667.56
2022-08-10T19:18:28.745Z,99666.10
2022-08-10T19:21:40.492Z,99667.43
2022-08-10T19:24:58.399Z,99667.41
2022-08-10T19:28:13.774Z,99676.41
2022-08-10T19:31:44.327Z,99674.25
2022-08-10T19:35:04.940Z,99673.33
2022-08-10T19:38:32.116Z,99671.51
2022-08-10T19:41:44.653Z,99668.28
2022-08-10T19:44:59.127Z,99668.10
2022-08-10T19:48:16.824Z,99671.54
2022-08-10T19:51:27.588Z,99669.52
2022-08-10T19:54:46.174Z,99663.89
2022-08-10T19:57:59.774Z,99666.38
2022-08-10T20:01:07.846Z,99671.15
2022-08-10T20:04:22.480Z,99671.07
2022-08-10T20:07:44.089Z,99665.86
2022-08-10T20:10:58.671Z,99666.41
2022-08-10T20:14:21.498Z,99669.89
2022-08-10T20:17:51.491Z,99665.41
2022-08-10T20:21:04.524Z,99666.05
2022-08-10T20:24:13.588Z,99671.70
2022-08-10T20:27:58.889Z,99671.55
2022-08-10T20:30:59.914Z,99672.49
2022-08-10T20:34:11.087Z,99675.14
2022-08-10T20:37:46.952Z,99671.20
2022-08-10T20:40:57.513Z,99674.81
2022-08-10T20:44:14.000Z,99672.76
2022-08-10T20:47:28.403Z,99671.89
2022-08-10T20:50:38.628Z,99669.80
2022-08-10T20:53:50.915Z,99671.39
2022-08-10T20:57:55.963Z,99674.10
2022-08-10T21:00:49.259Z,99672.91
2022-08-10T21:04:03.975Z,99676.13
2022-08-10T21:07:50.659Z,99670.67
2022-08-10T21:11:09.540Z,99676.80
2022-08-10T21:14:39.680Z,99678.05
2022-08-10T21:18:00.278Z,99674.02
2022-08-10T21:21:16.852Z,99669.52
2022-08-10T21:24:26.942Z,99666.73
2022-08-10T21:27:58.827Z,99665.25
2022-08-10T21:31:21.981Z,99663.52
2022-08-10T21:38:26.588Z,99671.03
2022-08-10T21:42:01.567Z,99673.23
2022-08-10T21:45:57.854Z,99671.90
2022-08-10T21:49:36.783Z,99673.77
2022-08-10T21:53:11.933Z,99671.98
2022-08-10T21:56:46.606Z,99670.94
2022-08-10T22:00:16.184Z,99673.98
2022-08-10T22:03:40.701Z,99672.19
2022-08-10T22:07:09.112Z,99672.66
2022-08-10T22:10:34.153Z,99672.42
2022-08-10T22:14:05.148Z,99670.64
2022-08-10T22:18:03.585Z,99667.17
2022-08-10T22:21:27.078Z,99667.67
2022-08-10T22:25:16.451Z,99664.67
2022-08-10T22:28:40.612Z,99664.20
2022-08-10T22:31:28.355Z,99666.29
2022-08-10T22:32:15.776Z,99661.66
2022-08-10T22:36:04.823Z,99665.42
2022-08-10T22:40:12.488Z,99662.70
2022-08-10T22:43:36.174Z,99662.02
2022-08-10T22:47:02.835Z,99656.39
2022-08-10T22:50:10.484Z,99652.61
2022-08-10T22:53:20.872Z,99652.22
2022-08-10T22:56:44.574Z,99652.80
2022-08-10T22:59:51.441Z,99648.55
2022-08-10T23:03:03.864Z,99643.73
2022-08-10T23:06:14.875Z,99638.89
2022-08-10T23:09:23.356Z,99636.73
2022-08-10T23:12:36.383Z,99634.60
2022-08-10T23:16:08.660Z,99634.88
2022-08-10T23:19:22.445Z,99635.63
2022-08-10T23:22:36.889Z,99640.64
2022-08-10T23:25:56.581Z,99640.33
2022-08-10T23:29:09.666Z,99641.23
2022-08-10T23:32:21.157Z,99643.12
2022-08-10T23:36:31.497Z,99637.79
2022-08-10T23:39:23.873Z,99634.23
2022-08-10T23:42:22.783Z,99635.27
2022-08-10T23:45:52.260Z,99630.35
2022-08-10T23:48:59.519Z,99633.45
2022-08-10T23:52:12.713Z,99631.83
2022-08-10T23:55:26.259Z,99627.36
2022-08-10T23:58:40.920Z,99630.53
